Time;durP1;ratioP1;P1;durP2;ratioP2;P2;SDS_P1;SDS_P2;PMS_P1;PMS_P2;Temp;Humidity;BMP_temperature;BMP_pressure;BME280_temperature;BME280_humidity;BME280_pressure;Samples;Min_cycle;Max_cycle;Signal;HPM_P1;HPM_P2
2023/01/01 00:01:39;;;;;;;;;;;16.20;99.90;;;;;;5095222;28;19908;-63
2023/01/01 00:04:07;;;;;;;;;;;16.30;99.90;;;;;;5095217;28;19908;-63
2023/01/01 00:06:33;;;;;;;;;;;16.30;99.90;;;;;;5095430;28;20419;-63
2023/01/01 00:11:44;;;;;;;;;;;16.30;99.90;;;;;;5094828;28;19909;-63
2023/01/01 00:14:09;;;;;;;;;;;16.40;99.90;;;;;;5095213;28;19912;-63
2023/01/01 00:16:35;;;;;;;;;;;16.30;99.90;;;;;;5094916;28;19908;-63
2023/01/01 00:19:00;;;;;;;;;;;16.30;99.90;;;;;;5094888;28;19912;-64
2023/01/01 00:21:25;;;;;;;;;;;16.40;99.90;;;;;;5094834;28;19908;-63
2023/01/01 00:23:51;;;;;;;;;;;16.40;99.90;;;;;;5076587;28;19915;-63
2023/01/01 00:26:17;;;;;;;;;;;16.40;99.90;;;;;;5094766;28;19961;-63
2023/01/01 00:28:43;;;;;;;;;;;16.50;99.90;;;;;;5094737;28;19914;-63
2023/01/01 00:31:10;;;;;;;;;;;16.50;99.90;;;;;;5094697;28;19916;-63
2023/01/01 00:33:35;;;;;;;;;;;16.50;99.90;;;;;;5094486;28;20353;-63
2023/01/01 00:36:16;;;;;;;;;;;16.50;99.90;;;;;;5094506;28;19955;-63
2023/01/01 00:38:43;;;;;;;;;;;16.60;99.90;;;;;;5094462;28;20362;-63
2023/01/01 00:41:08;;;;;;;;;;;16.60;99.90;;;;;;5076394;28;19954;-63
2023/01/01 00:43:34;;;;;;;;;;;16.70;99.90;;;;;;5093913;28;20292;-63
2023/01/01 00:45:59;;;;;;;;;;;16.60;99.90;;;;;;5094379;28;19908;-63
2023/01/01 00:48:25;;;;;;;;;;;16.50;99.90;;;;;;5094334;28;19908;-63
2023/01/01 00:50:51;;;;;;;;;;;16.50;99.90;;;;;;5094275;28;19935;-63
2023/01/01 00:53:16;;;;;;;;;;;16.50;99.90;;;;;;5094235;28;20030;-63
2023/01/01 00:55:42;;;;;;;;;;;16.50;99.90;;;;;;5094110;28;20139;-63
2023/01/01 00:58:08;;;;;;;;;;;16.60;99.90;;;;;;5076095;28;19912;-63
2023/01/01 01:00:33;;;;;;;;;;;16.50;99.90;;;;;;5094116;28;19916;-63
2023/01/01 01:02:59;;;;;;;;;;;16.40;99.90;;;;;;5094044;28;19947;-64
2023/01/01 01:05:25;;;;;;;;;;;16.40;99.90;;;;;;5094077;28;19970;-63
2023/01/01 01:07:50;;;;;;;;;;;16.30;99.90;;;;;;5094043;28;19958;-63
2023/01/01 01:10:16;;;;;;;;;;;16.30;99.90;;;;;;5094009;28;19911;-63
2023/01/01 01:12:42;;;;;;;;;;;16.20;99.90;;;;;;5094198;28;20008;-63
2023/01/01 01:15:08;;;;;;;;;;;16.10;99.90;;;;;;5093896;28;20363;-63
2023/01/01 01:17:34;;;;;;;;;;;16.10;99.90;;;;;;5093899;28;20365;-63
2023/01/01 01:19:59;;;;;;;;;;;16.10;99.90;;;;;;5094109;28;19915;-63
2023/01/01 01:22:25;;;;;;;;;;;16.10;99.90;;;;;;5094127;28;19915;-63
2023/01/01 01:24:51;;;;;;;;;;;16.10;99.90;;;;;;5094125;28;19912;-63
2023/01/01 01:27:16;;;;;;;;;;;16.00;99.90;;;;;;5093833;28;19909;-63
2023/01/01 01:29:42;;;;;;;;;;;15.90;99.90;;;;;;5093760;28;19915;-63
2023/01/01 01:32:09;;;;;;;;;;;15.90;99.90;;;;;;5094016;28;19970;-63
2023/01/01 01:34:34;;;;;;;;;;;15.90;99.90;;;;;;5093466;28;19920;-63
2023/01/01 01:37:00;;;;;;;;;;;15.90;99.90;;;;;;5093693;28;19949;-63
2023/01/01 01:39:25;;;;;;;;;;;15.90;99.90;;;;;;5093694;28;19958;-63
2023/01/01 01:41:51;;;;;;;;;;;15.90;99.90;;;;;;5093658;28;19919;-63
2023/01/01 01:44:36;;;;;;;;;;;15.90;99.90;;;;;;5093623;28;19908;-63
2023/01/01 01:47:02;;;;;;;;;;;15.90;99.90;;;;;;5093587;28;20321;-63
2023/01/01 01:49:29;;;;;;;;;;;16.00;99.90;;;;;;5093865;28;19950;-63
2023/01/01 01:51:55;;;;;;;;;;;16.00;99.90;;;;;;5093837;28;20343;-63
2023/01/01 01:54:22;;;;;;;;;;;16.00;99.90;;;;;;5093471;28;20002;-63
2023/01/01 01:56:51;;;;;;;;;;;15.90;99.90;;;;;;5095778;28;19919;-63
2023/01/01 01:59:17;;;;;;;;;;;15.80;99.90;;;;;;5097588;28;19991;-63
2023/01/01 02:01:43;;;;;;;;;;;15.80;99.90;;;;;;5097537;28;20358;-63
2023/01/01 02:04:09;;;;;;;;;;;15.80;99.90;;;;;;5097541;28;19916;-63
2023/01/01 02:06:34;;;;;;;;;;;15.90;99.90;;;;;;5097571;28;19908;-64
2023/01/01 02:09:01;;;;;;;;;;;15.90;99.90;;;;;;5097483;28;19919;-63
2023/01/01 02:11:27;;;;;;;;;;;15.90;99.90;;;;;;5079196;28;19916;-63
2023/01/01 02:13:53;;;;;;;;;;;15.90;99.90;;;;;;5097491;28;19908;-63
2023/01/01 02:16:22;;;;;;;;;;;15.80;99.90;;;;;;5097338;28;20326;-63
2023/01/01 02:18:56;;;;;;;;;;;15.80;99.90;;;;;;5097231;28;19908;-63
2023/01/01 02:21:24;;;;;;;;;;;15.80;99.90;;;;;;5097202;28;19947;-63
2023/01/01 02:24:09;;;;;;;;;;;15.70;99.90;;;;;;5097179;28;19908;-63
2023/01/01 02:26:44;;;;;;;;;;;15.80;99.90;;;;;;5096950;28;19962;-63
2023/01/01 02:29:16;;;;;;;;;;;15.80;99.90;;;;;;5097037;28;19912;-63
2023/01/01 02:31:45;;;;;;;;;;;15.80;99.90;;;;;;5097007;28;19962;-63
2023/01/01 02:34:12;;;;;;;;;;;15.90;99.90;;;;;;5096677;28;19920;-63
2023/01/01 02:36:41;;;;;;;;;;;15.80;99.90;;;;;;5096861;28;19943;-64
2023/01/01 02:39:07;;;;;;;;;;;15.60;99.90;;;;;;5096826;28;19912;-63
2023/01/01 02:41:35;;;;;;;;;;;15.60;99.90;;;;;;5078650;28;19915;-64
2023/01/01 02:44:01;;;;;;;;;;;15.60;99.90;;;;;;5096747;28;19913;-64
2023/01/01 02:46:34;;;;;;;;;;;15.70;99.90;;;;;;5096724;28;19909;-63
2023/01/01 02:49:00;;;;;;;;;;;15.60;99.90;;;;;;5096692;28;20380;-64
2023/01/01 02:51:46;;;;;;;;;;;15.50;99.90;;;;;;5096655;28;19951;-63
2023/01/01 02:54:21;;;;;;;;;;;15.60;99.90;;;;;;5096457;28;20365;-63
2023/01/01 02:57:06;;;;;;;;;;;15.60;99.90;;;;;;5096545;28;20322;-63
2023/01/01 03:00:26;;;;;;;;;;;15.70;99.90;;;;;;5096389;28;19916;-64
2023/01/01 03:02:43;;;;;;;;;;;15.60;99.90;;;;;;5096322;28;19909;-63
2023/01/01 03:05:28;;;;;;;;;;;15.60;99.90;;;;;;5078376;28;19945;-63
2023/01/01 03:08:03;;;;;;;;;;;15.50;99.90;;;;;;5095721;28;19908;-63
2023/01/01 03:10:32;;;;;;;;;;;15.50;99.90;;;;;;5096281;28;20353;-63
2023/01/01 03:13:03;;;;;;;;;;;15.50;99.90;;;;;;5096527;28;19908;-63
2023/01/01 03:15:35;;;;;;;;;;;15.50;99.90;;;;;;5096113;28;19920;-63
2023/01/01 03:18:04;;;;;;;;;;;15.40;99.90;;;;;;5096430;28;19908;-63
2023/01/01 03:20:31;;;;;;;;;;;15.50;99.90;;;;;;5096132;28;20335;-64
2023/01/01 03:22:59;;;;;;;;;;;15.40;99.90;;;;;;5096052;28;19908;-63
2023/01/01 03:25:28;;;;;;;;;;;15.40;99.90;;;;;;5096378;28;20281;-63
2023/01/01 03:27:57;;;;;;;;;;;15.50;99.90;;;;;;5095937;28;19995;-63
2023/01/01 03:30:23;;;;;;;;;;;15.50;99.90;;;;;;5095914;28;20367;-63
2023/01/01 03:32:59;;;;;;;;;;;15.40;99.90;;;;;;5095833;28;19908;-63
2023/01/01 03:35:45;;;;;;;;;;;15.50;99.90;;;;;;5095650;28;19973;-63
2023/01/01 03:38:15;;;;;;;;;;;15.50;99.90;;;;;;5095658;28;19915;-63
2023/01/01 03:40:42;;;;;;;;;;;15.50;99.90;;;;;;5095702;28;19908;-63
2023/01/01 03:43:11;;;;;;;;;;;15.50;99.90;;;;;;5095638;28;19908;-63
2023/01/01 03:45:39;;;;;;;;;;;15.40;99.90;;;;;;5095868;28;19916;-63
2023/01/01 03:48:05;;;;;;;;;;;15.40;99.90;;;;;;5077410;28;20277;-63
2023/01/01 03:50:39;;;;;;;;;;;15.40;99.90;;;;;;5095512;28;19999;-63
2023/01/01 03:53:24;;;;;;;;;;;15.40;99.90;;;;;;5095434;28;19908;-63
2023/01/01 03:55:57;;;;;;;;;;;15.40;99.90;;;;;;5095139;28;19916;-63
2023/01/01 03:58:25;;;;;;;;;;;15.50;99.90;;;;;;5095352;28;20361;-63
2023/01/01 04:01:11;;;;;;;;;;;15.40;99.90;;;;;;5095275;28;19916;-63
2023/01/01 04:03:37;;;;;;;;;;;15.50;99.90;;;;;;5095143;28;20331;-63
2023/01/01 04:06:02;;;;;;;;;;;15.40;99.90;;;;;;5095145;28;19916;-63
2023/01/01 04:08:30;;;;;;;;;;;15.40;99.90;;;;;;5095139;28;19908;-63
2023/01/01 04:10:58;;;;;;;;;;;15.40;99.90;;;;;;5095162;28;19909;-63
2023/01/01 04:13:23;;;;;;;;;;;15.30;99.90;;;;;;5076939;28;20396;-63
2023/01/01 04:15:49;;;;;;;;;;;15.30;99.90;;;;;;5094926;28;19912;-63
2023/01/01 04:18:14;;;;;;;;;;;15.40;99.90;;;;;;5094337;28;20453;-63
2023/01/01 04:20:40;;;;;;;;;;;15.40;99.90;;;;;;5094915;28;19915;-63
2023/01/01 04:23:05;;;;;;;;;;;15.50;99.90;;;;;;5095120;28;19919;-63
2023/01/01 04:25:31;;;;;;;;;;;15.40;99.90;;;;;;5094809;28;20392;-64
2023/01/01 04:27:57;;;;;;;;;;;15.40;99.90;;;;;;5094811;28;19908;-63
2023/01/01 04:30:23;;;;;;;;;;;15.50;99.90;;;;;;5095000;28;20341;-63
2023/01/01 04:32:48;;;;;;;;;;;15.40;99.90;;;;;;5076633;28;20009;-63
2023/01/01 04:35:14;;;;;;;;;;;15.50;99.90;;;;;;5094387;28;19920;-63
2023/01/01 04:37:41;;;;;;;;;;;15.50;99.90;;;;;;5094591;28;20376;-63
2023/01/01 04:40:07;;;;;;;;;;;15.50;99.90;;;;;;5094832;28;19908;-63
2023/01/01 04:42:32;;;;;;;;;;;15.50;99.90;;;;;;5094807;28;19934;-63
2023/01/01 04:44:58;;;;;;;;;;;15.50;99.90;;;;;;5094475;28;19957;-63
2023/01/01 04:47:25;;;;;;;;;;;15.50;99.90;;;;;;5094433;28;19917;-63
2023/01/01 04:49:51;;;;;;;;;;;15.40;99.90;;;;;;5094409;28;19962;-63
2023/01/01 04:52:16;;;;;;;;;;;15.50;99.90;;;;;;5076318;28;19909;-63
2023/01/01 04:54:42;;;;;;;;;;;15.50;99.90;;;;;;5076084;28;19912;-63
2023/01/01 04:57:07;;;;;;;;;;;15.50;99.90;;;;;;5094250;28;19995;-63
2023/01/01 04:59:33;;;;;;;;;;;15.40;99.90;;;;;;5094194;28;19908;-63
2023/01/01 05:01:58;;;;;;;;;;;15.40;99.90;;;;;;5076140;28;20049;-63
2023/01/01 05:04:24;;;;;;;;;;;15.40;99.90;;;;;;5094157;28;20297;-64
2023/01/01 05:06:49;;;;;;;;;;;15.40;99.90;;;;;;5094350;28;19990;-63
2023/01/01 05:09:15;;;;;;;;;;;15.40;99.90;;;;;;5094115;28;19916;-63
2023/01/01 05:11:40;;;;;;;;;;;15.50;99.90;;;;;;5076036;28;19958;-63
2023/01/01 05:14:06;;;;;;;;;;;15.50;99.90;;;;;;5093895;28;19908;-64
2023/01/01 05:16:33;;;;;;;;;;;15.40;99.90;;;;;;5059716;28;19973;-65
2023/01/01 05:18:58;;;;;;;;;;;15.30;99.90;;;;;;5093951;28;19953;-63
2023/01/01 05:21:25;;;;;;;;;;;15.30;99.90;;;;;;5093855;28;19908;-64
2023/01/01 05:23:53;;;;;;;;;;;15.40;99.90;;;;;;5075768;28;19912;-64
2023/01/01 05:26:20;;;;;;;;;;;15.30;99.90;;;;;;5093851;28;19908;-63
2023/01/01 05:28:46;;;;;;;;;;;15.30;99.90;;;;;;5094061;28;19957;-63
2023/01/01 05:31:13;;;;;;;;;;;15.20;99.90;;;;;;5093600;28;19980;-63
2023/01/01 05:33:39;;;;;;;;;;;15.20;99.90;;;;;;5075453;28;19908;-63
2023/01/01 05:36:05;;;;;;;;;;;15.30;99.90;;;;;;5093645;28;19919;-64
2023/01/01 05:38:30;;;;;;;;;;;15.20;99.90;;;;;;5093743;28;20003;-64
2023/01/01 05:40:56;;;;;;;;;;;15.20;99.90;;;;;;5075642;28;20466;-63
2023/01/01 05:43:22;;;;;;;;;;;15.20;99.90;;;;;;5093652;28;19912;-64
2023/01/01 05:45:47;;;;;;;;;;;15.10;99.90;;;;;;5093607;28;19916;-64
2023/01/01 05:48:13;;;;;;;;;;;15.10;99.90;;;;;;5075605;28;19908;-64
2023/01/01 05:50:38;;;;;;;;;;;14.90;99.90;;;;;;5093876;28;19958;-63
2023/01/01 05:53:04;;;;;;;;;;;15.00;99.90;;;;;;5093645;28;20007;-64
2023/01/01 05:55:29;;;;;;;;;;;14.90;99.90;;;;;;5093784;28;19945;-63
2023/01/01 05:57:55;;;;;;;;;;;14.90;99.90;;;;;;5075548;28;19915;-63
2023/01/01 06:00:21;;;;;;;;;;;14.90;99.90;;;;;;5093513;28;19957;-63
2023/01/01 06:02:48;;;;;;;;;;;14.80;99.90;;;;;;5093479;28;19908;-63
2023/01/01 06:05:14;;;;;;;;;;;14.80;99.90;;;;;;5093424;28;20415;-63
2023/01/01 06:07:39;;;;;;;;;;;14.80;99.90;;;;;;5093488;28;19912;-64
2023/01/01 06:10:05;;;;;;;;;;;14.90;99.90;;;;;;5093363;28;19908;-64
2023/01/01 06:12:30;;;;;;;;;;;14.80;99.90;;;;;;5093460;28;19939;-64
2023/01/01 06:14:56;;;;;;;;;;;14.80;99.90;;;;;;5093280;28;20381;-63
2023/01/01 06:17:21;;;;;;;;;;;14.80;99.90;;;;;;5093364;28;19918;-63
2023/01/01 06:19:47;;;;;;;;;;;14.80;99.90;;;;;;5093300;28;19912;-63
2023/01/01 06:22:13;;;;;;;;;;;14.80;99.90;;;;;;5075215;28;19915;-63
2023/01/01 06:24:38;;;;;;;;;;;14.80;99.90;;;;;;5075307;28;19916;-63
2023/01/01 06:27:03;;;;;;;;;;;14.80;99.90;;;;;;5093268;28;19915;-64
2023/01/01 06:29:29;;;;;;;;;;;14.80;99.90;;;;;;5093305;28;19911;-63
2023/01/01 06:31:54;;;;;;;;;;;14.80;99.90;;;;;;5093214;28;20369;-64
2023/01/01 06:34:20;;;;;;;;;;;14.70;99.90;;;;;;5092952;28;19920;-64
2023/01/01 06:36:45;;;;;;;;;;;14.80;99.90;;;;;;5093157;28;19915;-64
2023/01/01 06:39:11;;;;;;;;;;;14.80;99.90;;;;;;5093186;28;19908;-63
2023/01/01 06:41:36;;;;;;;;;;;14.80;99.90;;;;;;5093372;28;20289;-63
2023/01/01 06:44:02;;;;;;;;;;;14.80;99.90;;;;;;5096827;28;19912;-63
2023/01/01 06:46:29;;;;;;;;;;;14.90;99.90;;;;;;5096793;28;19908;-63
2023/01/01 06:48:56;;;;;;;;;;;14.90;99.90;;;;;;5096730;28;19908;-63
2023/01/01 06:51:24;;;;;;;;;;;14.70;99.90;;;;;;5096666;28;20329;-63
2023/01/01 06:53:50;;;;;;;;;;;14.80;99.90;;;;;;5096612;28;20250;-63
2023/01/01 06:56:16;;;;;;;;;;;14.80;99.90;;;;;;5096486;28;19912;-63
2023/01/01 06:58:41;;;;;;;;;;;14.80;99.90;;;;;;5096554;28;19908;-64
2023/01/01 07:01:09;;;;;;;;;;;14.80;99.90;;;;;;5096506;28;20071;-63
2023/01/01 07:03:35;;;;;;;;;;;14.90;99.90;;;;;;5096402;28;19915;-64
2023/01/01 07:06:01;;;;;;;;;;;14.90;99.90;;;;;;5096396;28;19909;-63
2023/01/01 07:08:26;;;;;;;;;;;14.80;99.90;;;;;;5096279;28;20026;-63
2023/01/01 07:10:52;;;;;;;;;;;14.80;99.90;;;;;;5096287;28;19912;-63
2023/01/01 07:13:17;;;;;;;;;;;14.90;99.90;;;;;;5096246;28;19969;-63
2023/01/01 07:15:43;;;;;;;;;;;14.90;99.90;;;;;;5096143;28;19912;-63
2023/01/01 07:18:08;;;;;;;;;;;14.90;99.90;;;;;;5096399;28;20407;-63
2023/01/01 07:20:34;;;;;;;;;;;14.90;99.90;;;;;;5096180;28;20331;-64
2023/01/01 07:23:01;;;;;;;;;;;14.90;99.90;;;;;;5096098;28;20281;-63
2023/01/01 07:25:26;;;;;;;;;;;14.80;99.90;;;;;;5096007;28;20289;-63
2023/01/01 07:27:52;;;;;;;;;;;14.80;99.90;;;;;;5095979;28;19933;-63
2023/01/01 07:30:17;;;;;;;;;;;14.80;99.90;;;;;;5095902;28;20334;-63
2023/01/01 07:32:43;;;;;;;;;;;14.80;99.90;;;;;;5095871;28;19999;-63
2023/01/01 07:35:08;;;;;;;;;;;14.70;99.90;;;;;;5077463;28;19969;-63
2023/01/01 07:37:34;;;;;;;;;;;14.70;99.90;;;;;;5077649;28;19908;-63
2023/01/01 07:39:59;;;;;;;;;;;14.70;99.90;;;;;;5096029;28;19915;-63
2023/01/01 07:42:25;;;;;;;;;;;14.70;99.90;;;;;;5095711;28;19908;-63
2023/01/01 07:44:50;;;;;;;;;;;14.70;99.90;;;;;;5095633;28;19908;-63
2023/01/01 07:47:24;;;;;;;;;;;14.70;99.90;;;;;;5077516;28;19909;-63
2023/01/01 07:49:50;;;;;;;;;;;14.70;99.90;;;;;;5095528;28;19908;-64
2023/01/01 07:52:15;;;;;;;;;;;14.70;99.90;;;;;;5095482;28;19957;-63
2023/01/01 07:54:41;;;;;;;;;;;14.70;99.90;;;;;;5095401;28;20361;-63
2023/01/01 07:57:06;;;;;;;;;;;14.70;99.90;;;;;;5095400;28;19913;-63
2023/01/01 07:59:32;;;;;;;;;;;14.60;99.90;;;;;;5095348;28;19919;-63
2023/01/01 08:01:58;;;;;;;;;;;14.50;99.90;;;;;;5095285;28;19908;-63
2023/01/01 08:04:25;;;;;;;;;;;14.40;99.90;;;;;;5095458;28;19915;-63
2023/01/01 08:06:52;;;;;;;;;;;14.40;99.90;;;;;;5095223;28;19915;-63
2023/01/01 08:09:17;;;;;;;;;;;14.30;99.90;;;;;;5095135;28;19951;-63
2023/01/01 08:11:43;;;;;;;;;;;14.20;99.90;;;;;;5095087;28;20374;-63
2023/01/01 08:14:08;;;;;;;;;;;14.20;99.90;;;;;;5076971;28;19912;-63
2023/01/01 08:16:34;;;;;;;;;;;14.20;99.90;;;;;;5076853;28;20312;-63
2023/01/01 08:18:59;;;;;;;;;;;14.20;99.90;;;;;;5094962;28;19999;-63
2023/01/01 08:21:25;;;;;;;;;;;14.10;99.90;;;;;;5094938;28;19958;-63
2023/01/01 08:23:50;;;;;;;;;;;14.10;99.90;;;;;;5095140;28;19909;-63
2023/01/01 08:26:16;;;;;;;;;;;14.10;99.90;;;;;;5094936;28;20388;-63
2023/01/01 08:28:42;;;;;;;;;;;14.10;99.90;;;;;;5094847;28;19994;-63
2023/01/01 08:31:07;;;;;;;;;;;14.10;99.90;;;;;;5094804;28;19908;-63
2023/01/01 08:33:33;;;;;;;;;;;14.00;99.90;;;;;;5094604;28;19909;-63
2023/01/01 08:35:58;;;;;;;;;;;14.10;99.90;;;;;;5094585;28;20019;-63
2023/01/01 08:38:24;;;;;;;;;;;14.10;99.90;;;;;;5094900;28;20269;-63
2023/01/01 08:40:50;;;;;;;;;;;14.10;99.90;;;;;;5094623;28;19915;-63
2023/01/01 08:43:15;;;;;;;;;;;14.00;99.90;;;;;;5094765;28;20367;-63
2023/01/01 08:45:41;;;;;;;;;;;14.00;99.90;;;;;;5094475;28;19999;-63
2023/01/01 08:48:06;;;;;;;;;;;14.00;99.90;;;;;;5076422;28;20373;-63
2023/01/01 08:50:32;;;;;;;;;;;14.00;99.90;;;;;;5094368;28;19916;-63
2023/01/01 08:52:58;;;;;;;;;;;14.00;99.90;;;;;;5094364;28;19912;-63
2023/01/01 08:55:23;;;;;;;;;;;14.00;99.90;;;;;;5076188;28;20266;-63
2023/01/01 08:57:49;;;;;;;;;;;13.90;99.90;;;;;;5094324;28;19908;-63
2023/01/01 09:00:15;;;;;;;;;;;14.00;99.90;;;;;;5094484;28;19908;-63
2023/01/01 09:02:40;;;;;;;;;;;13.90;99.90;;;;;;5094198;28;19908;-63
2023/01/01 09:05:06;;;;;;;;;;;13.90;99.90;;;;;;5093739;28;19908;-63
2023/01/01 09:07:32;;;;;;;;;;;14.00;99.90;;;;;;5094416;28;20000;-63
2023/01/01 09:09:57;;;;;;;;;;;14.00;99.90;;;;;;5094051;28;19908;-63
2023/01/01 09:12:22;;;;;;;;;;;14.00;99.90;;;;;;5094051;28;19908;-63
2023/01/01 09:14:48;;;;;;;;;;;14.00;99.90;;;;;;5093951;28;19912;-63
2023/01/01 09:17:14;;;;;;;;;;;14.00;99.90;;;;;;5094239;28;19908;-63
2023/01/01 09:19:39;;;;;;;;;;;14.00;99.90;;;;;;5094230;28;19915;-63
2023/01/01 09:22:08;;;;;;;;;;;14.00;99.90;;;;;;5093923;28;19914;-63
2023/01/01 09:24:33;;;;;;;;;;;14.00;99.90;;;;;;5076112;28;19908;-63
2023/01/01 09:26:59;;;;;;;;;;;14.10;99.90;;;;;;5093858;28;19914;-63
2023/01/01 09:29:24;;;;;;;;;;;14.10;99.90;;;;;;5093807;28;19939;-63
2023/01/01 09:31:49;;;;;;;;;;;14.10;99.90;;;;;;5093819;28;19957;-63
2023/01/01 09:34:16;;;;;;;;;;;14.10;99.90;;;;;;5093468;28;19942;-63
2023/01/01 09:36:42;;;;;;;;;;;14.10;99.90;;;;;;5093966;28;19916;-63
2023/01/01 09:39:09;;;;;;;;;;;14.10;99.90;;;;;;5093734;28;19977;-64
2023/01/01 09:41:44;;;;;;;;;;;14.10;99.90;;;;;;5093803;28;20281;-63
2023/01/01 09:47:10;;;;;;;;;;;14.10;99.90;;;;;;5091364;28;19912;-63
2023/01/01 09:49:38;;;;;;;;;;;14.10;99.90;;;;;;5091418;28;20334;-64
2023/01/01 09:52:04;;;;;;;;;;;14.10;99.90;;;;;;5091085;28;20368;-63
2023/01/01 09:54:33;;;;;;;;;;;14.10;99.90;;;;;;5091022;28;19966;-63
2023/01/01 09:57:00;;;;;;;;;;;14.20;99.90;;;;;;5091021;28;19908;-63
2023/01/01 09:59:26;;;;;;;;;;;14.20;99.90;;;;;;5090942;28;19915;-63
2023/01/01 10:02:06;;;;;;;;;;;14.20;99.90;;;;;;5090910;28;19912;-63
2023/01/01 10:04:51;;;;;;;;;;;14.30;99.90;;;;;;5123740;28;19908;-63
2023/01/01 10:07:37;;;;;;;;;;;14.30;99.90;;;;;;5090939;28;20294;-63
2023/01/01 10:10:22;;;;;;;;;;;14.40;99.90;;;;;;5090928;28;20412;-63
2023/01/01 10:12:55;;;;;;;;;;;14.40;99.90;;;;;;5089480;28;20438;-63
2023/01/01 10:15:22;;;;;;;;;;;14.50;99.90;;;;;;5090992;28;19908;-64
2023/01/01 10:17:51;;;;;;;;;;;14.40;99.90;;;;;;5090675;28;19912;-63
2023/01/01 10:20:27;;;;;;;;;;;14.40;99.90;;;;;;5090838;28;19958;-63
2023/01/01 10:23:02;;;;;;;;;;;14.40;99.90;;;;;;5123517;28;20387;-63
2023/01/01 10:25:29;;;;;;;;;;;14.40;99.90;;;;;;5090413;28;19912;-63
2023/01/01 10:27:57;;;;;;;;;;;14.50;99.90;;;;;;5090440;28;20300;-63
2023/01/01 10:30:23;;;;;;;;;;;14.50;99.90;;;;;;5090348;28;19934;-63
2023/01/01 10:32:50;;;;;;;;;;;14.50;99.90;;;;;;5090319;28;19909;-63
2023/01/01 10:35:18;;;;;;;;;;;14.50;99.90;;;;;;5123155;28;19909;-63
2023/01/01 10:37:43;;;;;;;;;;;14.50;99.90;;;;;;5090267;28;19970;-63
2023/01/01 10:40:17;;;;;;;;;;;14.60;99.90;;;;;;5090239;28;19909;-63
2023/01/01 10:42:46;;;;;;;;;;;14.60;99.90;;;;;;5122971;28;20274;-63
2023/01/01 10:45:13;;;;;;;;;;;14.60;99.90;;;;;;5094782;28;19978;-64
2023/01/01 10:47:59;;;;;;;;;;;14.60;99.90;;;;;;5110394;28;19911;-63
2023/01/01 10:50:39;;;;;;;;;;;14.70;99.90;;;;;;5110234;28;20363;-63
2023/01/01 10:53:05;;;;;;;;;;;14.60;99.90;;;;;;5110301;28;20002;-63
2023/01/01 10:55:30;;;;;;;;;;;14.70;99.90;;;;;;5110231;28;19986;-63
2023/01/01 10:57:56;;;;;;;;;;;14.70;99.90;;;;;;5099331;28;19909;-63
2023/01/01 11:00:24;;;;;;;;;;;14.70;99.90;;;;;;5096617;28;19909;-63
2023/01/01 11:03:09;;;;;;;;;;;14.70;99.90;;;;;;5096581;28;20419;-63
2023/01/01 11:05:35;;;;;;;;;;;14.70;99.90;;;;;;5096315;28;20385;-63
2023/01/01 11:08:00;;;;;;;;;;;14.80;99.90;;;;;;5096453;28;19908;-63
2023/01/01 11:10:28;;;;;;;;;;;14.80;99.90;;;;;;5078388;28;20277;-63
2023/01/01 11:12:53;;;;;;;;;;;14.80;99.90;;;;;;5096310;28;19909;-63
2023/01/01 11:15:21;;;;;;;;;;;14.80;99.90;;;;;;5096230;28;19908;-63
2023/01/01 11:17:47;;;;;;;;;;;14.80;99.90;;;;;;5096535;28;19938;-63
2023/01/01 11:20:17;;;;;;;;;;;14.90;99.90;;;;;;5096476;28;20312;-63
2023/01/01 11:22:45;;;;;;;;;;;14.90;99.90;;;;;;5096196;28;19908;-63
2023/01/01 11:25:20;;;;;;;;;;;15.00;99.90;;;;;;5096076;28;19959;-63
2023/01/01 11:27:46;;;;;;;;;;;15.00;99.90;;;;;;5078028;28;19909;-63
2023/01/01 11:32:59;;;;;;;;;;;15.00;99.90;;;;;;5071124;28;20409;-63
2023/01/01 11:35:26;;;;;;;;;;;15.00;99.90;;;;;;5070897;28;20290;-62
2023/01/01 11:37:53;;;;;;;;;;;15.00;99.90;;;;;;5070437;28;19908;-63
2023/01/01 11:40:22;;;;;;;;;;;15.00;99.90;;;;;;5069147;28;20290;-63
2023/01/01 11:42:49;;;;;;;;;;;15.00;99.90;;;;;;5086690;28;19909;-62
2023/01/01 11:45:23;;;;;;;;;;;14.90;99.90;;;;;;5070766;28;19913;-63
2023/01/01 11:47:52;;;;;;;;;;;14.90;99.90;;;;;;5070994;28;19920;-63
2023/01/01 11:50:23;;;;;;;;;;;14.90;99.90;;;;;;5070661;28;19944;-63
2023/01/01 11:52:49;;;;;;;;;;;14.90;99.90;;;;;;5070797;28;19982;-62
2023/01/01 11:55:22;;;;;;;;;;;14.90;99.90;;;;;;5070779;28;19909;-62
2023/01/01 11:57:53;;;;;;;;;;;14.90;99.90;;;;;;5070502;28;19915;-62
2023/01/01 12:00:18;;;;;;;;;;;14.90;99.90;;;;;;5070525;28;19958;-63
2023/01/01 12:02:54;;;;;;;;;;;14.90;99.90;;;;;;5070671;28;19912;-63
2023/01/01 12:05:23;;;;;;;;;;;14.90;99.90;;;;;;5086059;28;19999;-62
2023/01/01 12:07:50;;;;;;;;;;;14.90;99.90;;;;;;5070587;28;19919;-62
2023/01/01 12:10:34;;;;;;;;;;;14.90;99.90;;;;;;5070590;28;19915;-62
2023/01/01 12:13:02;;;;;;;;;;;14.90;99.90;;;;;;5070252;28;19920;-62
2023/01/01 12:15:47;;;;;;;;;;;14.90;99.90;;;;;;5070140;28;20142;-62
2023/01/01 12:20:56;;;;;;;;;;;14.90;99.90;;;;;;5091241;27;19918;-63
2023/01/01 12:23:21;;;;;;;;;;;14.90;99.90;;;;;;5091400;28;20332;-62
2023/01/01 12:25:52;;;;;;;;;;;14.90;99.90;;;;;;5091306;28;19908;-63
2023/01/01 12:28:28;;;;;;;;;;;14.90;99.90;;;;;;5091337;28;20358;-63
2023/01/01 12:31:01;;;;;;;;;;;14.90;99.90;;;;;;5091290;28;19916;-63
2023/01/01 12:33:46;;;;;;;;;;;14.90;99.90;;;;;;5090978;28;19931;-63
2023/01/01 12:36:17;;;;;;;;;;;14.90;99.90;;;;;;5090952;28;19915;-62
2023/01/01 12:39:02;;;;;;;;;;;14.90;99.90;;;;;;5091024;28;19962;-63
2023/01/01 12:41:48;;;;;;;;;;;14.90;99.90;;;;;;5090829;28;20302;-62
2023/01/01 12:49:56;;;;;;;;;;;14.90;99.90;;;;;;5071024;28;19913;-63
2023/01/01 12:52:29;;;;;;;;;;;14.90;99.90;;;;;;5071001;28;19960;-63
2023/01/01 12:55:14;;;;;;;;;;;14.90;99.90;;;;;;5070834;28;20007;-63
2023/01/01 12:57:44;;;;;;;;;;;14.90;99.90;;;;;;5070700;28;20408;-63
2023/01/01 13:00:12;;;;;;;;;;;14.90;99.90;;;;;;5071024;28;19915;-64
2023/01/01 13:02:41;;;;;;;;;;;14.90;99.90;;;;;;5070760;28;20374;-63
2023/01/01 13:05:12;;;;;;;;;;;14.90;99.90;;;;;;5070741;28;19962;-62
2023/01/01 13:07:39;;;;;;;;;;;14.90;99.90;;;;;;5070602;28;20352;-63
2023/01/01 13:10:09;;;;;;;;;;;14.90;99.90;;;;;;5070617;28;19913;-63
2023/01/01 13:12:36;;;;;;;;;;;14.90;99.90;;;;;;5070655;28;19923;-62
2023/01/01 13:15:22;;;;;;;;;;;14.90;99.90;;;;;;5070508;28;19960;-62
2023/01/01 13:17:51;;;;;;;;;;;14.80;99.90;;;;;;5070480;28;19909;-63
2023/01/01 13:20:22;;;;;;;;;;;14.80;99.90;;;;;;5070392;28;19916;-62
2023/01/01 13:22:47;;;;;;;;;;;14.70;99.90;;;;;;5085986;28;19916;-63
2023/01/01 13:30:40;;;;;;;;;;;14.70;99.90;;;;;;5071213;28;19913;-63
2023/01/01 13:33:27;;;;;;;;;;;14.70;99.90;;;;;;5070975;28;20007;-63
2023/01/01 13:36:10;;;;;;;;;;;14.70;99.90;;;;;;5069572;28;19913;-62
2023/01/01 13:38:47;;;;;;;;;;;14.60;99.90;;;;;;5071005;28;19954;-63
2023/01/01 13:41:29;;;;;;;;;;;14.60;99.90;;;;;;5070881;28;19909;-62
2023/01/01 13:44:02;;;;;;;;;;;14.60;99.90;;;;;;5070695;28;19908;-63
2023/01/01 13:49:29;;;;;;;;;;;14.50;99.90;;;;;;5071096;28;19913;-63
2023/01/01 13:52:14;;;;;;;;;;;14.60;99.90;;;;;;5070948;28;19920;-62
2023/01/01 13:55:00;;;;;;;;;;;14.60;99.90;;;;;;5070904;28;19966;-65
2023/01/01 13:57:35;;;;;;;;;;;14.50;99.90;;;;;;5070856;28;20325;-63
2023/01/01 14:00:04;;;;;;;;;;;14.50;99.90;;;;;;5070837;28;20357;-63
2023/01/01 14:02:34;;;;;;;;;;;14.50;99.90;;;;;;5070802;28;20393;-63
2023/01/01 14:05:04;;;;;;;;;;;14.50;99.90;;;;;;5086394;28;19912;-63
2023/01/01 14:07:33;;;;;;;;;;;14.40;99.90;;;;;;5069326;28;19917;-63
2023/01/01 14:10:15;;;;;;;;;;;14.40;99.90;;;;;;5070888;28;19995;-63
2023/01/01 14:12:41;;;;;;;;;;;14.40;99.90;;;;;;5086184;28;19913;-63
2023/01/01 14:15:23;;;;;;;;;;;14.40;99.90;;;;;;5070512;28;20259;-63
2023/01/01 14:17:49;;;;;;;;;;;14.40;99.90;;;;;;5069214;28;20354;-63
2023/01/01 14:20:17;;;;;;;;;;;14.40;99.90;;;;;;5070413;28;19916;-63
2023/01/01 14:22:44;;;;;;;;;;;14.30;99.90;;;;;;5070333;28;19909;-63
2023/01/01 14:25:17;;;;;;;;;;;14.30;99.90;;;;;;5070371;28;19908;-64
2023/01/01 14:27:43;;;;;;;;;;;14.30;99.90;;;;;;5068797;28;20429;-63
2023/01/01 14:30:17;;;;;;;;;;;14.30;99.90;;;;;;5070281;28;19909;-63
2023/01/01 14:32:42;;;;;;;;;;;14.20;99.90;;;;;;5070408;28;19961;-63
2023/01/01 14:35:15;;;;;;;;;;;14.20;99.90;;;;;;5070113;28;19988;-63
2023/01/01 14:37:41;;;;;;;;;;;14.10;99.90;;;;;;5070247;28;20281;-63
2023/01/01 14:40:15;;;;;;;;;;;14.20;99.90;;;;;;5070222;28;19917;-63
2023/01/01 14:42:41;;;;;;;;;;;14.10;99.90;;;;;;5069893;28;19912;-63
2023/01/01 14:45:12;;;;;;;;;;;14.10;99.90;;;;;;5069862;28;19916;-63
2023/01/01 14:47:38;;;;;;;;;;;14.10;99.90;;;;;;5077640;28;20301;-63
2023/01/01 14:50:10;;;;;;;;;;;14.10;99.90;;;;;;5071915;28;19908;-63